Wataga, Illinois
Current Conditions -  °F | °C
As of 2:35 PM on Monday 24 Nov 2014 (Local Time) from KGBG Reporting Station
Overcast Overcast  
Wind Chill: 13°   Ceiling: 1400
Heat Index: 28°   Visibility: 7mi
Dew Point: 25°   Wind: 23mph
Humidity: 89%   Direction: 260°W
Pressure: 29.64"   Gusts: 31mph
Location:  41.03°N, 90.28°W
Report Text: KGBG 242035Z AUTO 26020G27KT 7SM OVC014 M02/M04 A2964 RMK AO2 T10251041
Loading
Personal Weather Stations






























Interactive Weather Map New forecast layout! Learn more

10-Day Weather Forecast

Advertisements
Track Severe Weather on mobile